sensor_id;sensor_type;location;lat;lon;timestamp;P1;durP1;ratioP1;P2;durP2;ratioP2
4078;SDS011;2054;47.858;11.156;2023-07-13T02:45:25;6.78;;;4.65;;
4078;SDS011;2054;47.858;11.156;2023-07-13T02:47:53;6.07;;;4.63;;
4078;SDS011;2054;47.858;11.156;2023-07-13T02:50:20;6.97;;;4.55;;
4078;SDS011;2054;47.858;11.156;2023-07-13T02:52:48;5.85;;;5.25;;
4078;SDS011;2054;47.858;11.156;2023-07-13T02:55:15;6.18;;;4.65;;
4078;SDS011;2054;47.858;11.156;2023-07-13T02:57:42;6.60;;;5.63;;
4078;SDS011;2054;47.858;11.156;2023-07-13T03:00:10;7.57;;;5.40;;
4078;SDS011;2054;47.858;11.156;2023-07-13T03:02:38;5.72;;;4.63;;
4078;SDS011;2054;47.858;11.156;2023-07-13T03:05:06;9.60;;;4.70;;
4078;SDS011;2054;47.858;11.156;2023-07-13T03:07:35;8.25;;;4.82;;
4078;SDS011;2054;47.858;11.156;2023-07-13T03:10:03;7.85;;;4.68;;
4078;SDS011;2054;47.858;11.156;2023-07-13T03:12:31;10.55;;;5.13;;
4078;SDS011;2054;47.858;11.156;2023-07-13T03:14:58;6.13;;;4.63;;
4078;SDS011;2054;47.858;11.156;2023-07-13T03:17:25;6.07;;;4.70;;
4078;SDS011;2054;47.858;11.156;2023-07-13T03:19:54;6.53;;;4.80;;
4078;SDS011;2054;47.858;11.156;2023-07-13T03:22:22;6.05;;;4.53;;
4078;SDS011;2054;47.858;11.156;2023-07-13T03:24:49;6.00;;;4.57;;
4078;SDS011;2054;47.858;11.156;2023-07-13T03:27:17;6.15;;;4.93;;
4078;SDS011;2054;47.858;11.156;2023-07-13T03:29:44;5.47;;;4.15;;
4078;SDS011;2054;47.858;11.156;2023-07-13T03:32:11;7.93;;;5.13;;
4078;SDS011;2054;47.858;11.156;2023-07-13T03:34:38;7.13;;;4.65;;
4078;SDS011;2054;47.858;11.156;2023-07-13T03:37:07;8.73;;;4.60;;
4078;SDS011;2054;47.858;11.156;2023-07-13T03:39:34;6.63;;;5.10;;
4078;SDS011;2054;47.858;11.156;2023-07-13T03:42:02;6.65;;;4.60;;
4078;SDS011;2054;47.858;11.156;2023-07-13T03:44:29;7.57;;;4.78;;
4078;SDS011;2054;47.858;11.156;2023-07-13T03:46:56;8.02;;;4.82;;
4078;SDS011;2054;47.858;11.156;2023-07-13T03:49:23;6.05;;;4.70;;
4078;SDS011;2054;47.858;11.156;2023-07-13T03:51:51;7.22;;;4.47;;
4078;SDS011;2054;47.858;11.156;2023-07-13T03:54:19;6.22;;;4.88;;
4078;SDS011;2054;47.858;11.156;2023-07-13T03:56:46;6.45;;;4.65;;
4078;SDS011;2054;47.858;11.156;2023-07-13T03:59:14;5.93;;;3.75;;
4078;SDS011;2054;47.858;11.156;2023-07-13T04:01:41;7.00;;;4.70;;
4078;SDS011;2054;47.858;11.156;2023-07-13T04:04:08;6.00;;;4.53;;
4078;SDS011;2054;47.858;11.156;2023-07-13T04:06:35;7.15;;;5.07;;
4078;SDS011;2054;47.858;11.156;2023-07-13T04:09:03;4.93;;;4.32;;
4078;SDS011;2054;47.858;11.156;2023-07-13T04:11:33;5.68;;;4.60;;
4078;SDS011;2054;47.858;11.156;2023-07-13T04:14:01;7.68;;;4.60;;
4078;SDS011;2054;47.858;11.156;2023-07-13T04:16:29;5.68;;;4.30;;
4078;SDS011;2054;47.858;11.156;2023-07-13T04:18:56;5.47;;;4.32;;
4078;SDS011;2054;47.858;11.156;2023-07-13T04:21:25;5.70;;;5.10;;
4078;SDS011;2054;47.858;11.156;2023-07-13T04:23:52;6.53;;;4.60;;
4078;SDS011;2054;47.858;11.156;2023-07-13T04:26:20;9.02;;;4.95;;
4078;SDS011;2054;47.858;11.156;2023-07-13T04:28:49;5.00;;;4.50;;
4078;SDS011;2054;47.858;11.156;2023-07-13T04:31:16;8.68;;;4.57;;
4078;SDS011;2054;47.858;11.156;2023-07-13T04:33:44;7.18;;;4.43;;
4078;SDS011;2054;47.858;11.156;2023-07-13T04:36:11;6.13;;;4.60;;
4078;SDS011;2054;47.858;11.156;2023-07-13T04:38:38;6.50;;;4.53;;
4078;SDS011;2054;47.858;11.156;2023-07-13T04:41:06;6.22;;;4.20;;
4078;SDS011;2054;47.858;11.156;2023-07-13T04:43:35;7.00;;;4.22;;
4078;SDS011;2054;47.858;11.156;2023-07-13T04:46:04;6.05;;;4.13;;
4078;SDS011;2054;47.858;11.156;2023-07-13T04:48:32;6.10;;;4.63;;
4078;SDS011;2054;47.858;11.156;2023-07-13T04:50:59;6.10;;;4.05;;
4078;SDS011;2054;47.858;11.156;2023-07-13T04:53:27;4.68;;;4.00;;
4078;SDS011;2054;47.858;11.156;2023-07-13T04:55:54;5.93;;;4.25;;
4078;SDS011;2054;47.858;11.156;2023-07-13T04:58:23;5.10;;;4.25;;
4078;SDS011;2054;47.858;11.156;2023-07-13T05:00:50;5.25;;;4.70;;
4078;SDS011;2054;47.858;11.156;2023-07-13T05:03:19;8.55;;;4.63;;
4078;SDS011;2054;47.858;11.156;2023-07-13T05:05:54;7.47;;;4.45;;
4078;SDS011;2054;47.858;11.156;2023-07-13T05:08:21;5.70;;;4.28;;
4078;SDS011;2054;47.858;11.156;2023-07-13T05:10:49;7.63;;;4.47;;
4078;SDS011;2054;47.858;11.156;2023-07-13T05:13:17;6.80;;;4.30;;
4078;SDS011;2054;47.858;11.156;2023-07-13T05:15:44;5.80;;;4.45;;
4078;SDS011;2054;47.858;11.156;2023-07-13T05:18:12;7.75;;;4.38;;
4078;SDS011;2054;47.858;11.156;2023-07-13T05:20:40;7.00;;;4.40;;
4078;SDS011;2054;47.858;11.156;2023-07-13T05:23:08;6.78;;;4.55;;
4078;SDS011;2054;47.858;11.156;2023-07-13T05:25:35;13.30;;;4.75;;
4078;SDS011;2054;47.858;11.156;2023-07-13T05:28:02;5.75;;;4.10;;
4078;SDS011;2054;47.858;11.156;2023-07-13T05:30:29;5.55;;;4.22;;
4078;SDS011;2054;47.858;11.156;2023-07-13T05:32:58;7.90;;;4.22;;
4078;SDS011;2054;47.858;11.156;2023-07-13T05:35:26;6.45;;;4.28;;
4078;SDS011;2054;47.858;11.156;2023-07-13T05:37:54;5.95;;;4.13;;
4078;SDS011;2054;47.858;11.156;2023-07-13T05:40:22;5.47;;;4.30;;
4078;SDS011;2054;47.858;11.156;2023-07-13T05:42:49;4.97;;;4.00;;
4078;SDS011;2054;47.858;11.156;2023-07-13T05:45:17;4.53;;;3.55;;
4078;SDS011;2054;47.858;11.156;2023-07-13T05:47:44;9.63;;;3.60;;
4078;SDS011;2054;47.858;11.156;2023-07-13T05:50:11;6.72;;;4.00;;
4078;SDS011;2054;47.858;11.156;2023-07-13T05:52:39;6.50;;;4.07;;
4078;SDS011;2054;47.858;11.156;2023-07-13T05:55:09;6.40;;;4.40;;
4078;SDS011;2054;47.858;11.156;2023-07-13T05:57:36;4.40;;;4.00;;
4078;SDS011;2054;47.858;11.156;2023-07-13T06:00:04;5.25;;;4.00;;
4078;SDS011;2054;47.858;11.156;2023-07-13T06:02:32;5.10;;;4.20;;
4078;SDS011;2054;47.858;11.156;2023-07-13T06:04:59;6.25;;;4.30;;
4078;SDS011;2054;47.858;11.156;2023-07-13T06:07:26;7.70;;;4.75;;
4078;SDS011;2054;47.858;11.156;2023-07-13T06:09:54;7.28;;;4.80;;
4078;SDS011;2054;47.858;11.156;2023-07-13T06:12:22;6.22;;;4.22;;
4078;SDS011;2054;47.858;11.156;2023-07-13T06:14:50;8.38;;;4.90;;
4078;SDS011;2054;47.858;11.156;2023-07-13T06:17:17;7.15;;;5.00;;
4078;SDS011;2054;47.858;11.156;2023-07-13T06:19:44;9.98;;;5.63;;
4078;SDS011;2054;47.858;11.156;2023-07-13T06:22:12;8.63;;;5.40;;
4078;SDS011;2054;47.858;11.156;2023-07-13T06:24:39;12.88;;;6.05;;
4078;SDS011;2054;47.858;11.156;2023-07-13T06:27:06;7.75;;;5.28;;
4078;SDS011;2054;47.858;11.156;2023-07-13T06:29:35;11.63;;;5.55;;
4078;SDS011;2054;47.858;11.156;2023-07-13T06:32:02;9.73;;;5.30;;
4078;SDS011;2054;47.858;11.156;2023-07-13T06:34:29;9.02;;;5.60;;
4078;SDS011;2054;47.858;11.156;2023-07-13T06:36:57;6.75;;;4.25;;
4078;SDS011;2054;47.858;11.156;2023-07-13T06:39:24;6.20;;;4.47;;
4078;SDS011;2054;47.858;11.156;2023-07-13T06:41:51;7.32;;;5.30;;
4078;SDS011;2054;47.858;11.156;2023-07-13T06:44:18;5.72;;;4.70;;
4078;SDS011;2054;47.858;11.156;2023-07-13T06:46:47;8.45;;;5.13;;
4078;SDS011;2054;47.858;11.156;2023-07-13T06:49:14;7.45;;;4.43;;
4078;SDS011;2054;47.858;11.156;2023-07-13T06:51:41;5.53;;;3.60;;
4078;SDS011;2054;47.858;11.156;2023-07-13T06:54:08;4.97;;;3.60;;
4078;SDS011;2054;47.858;11.156;2023-07-13T06:56:36;6.97;;;3.92;;
4078;SDS011;2054;47.858;11.156;2023-07-13T06:59:03;5.45;;;3.95;;
4078;SDS011;2054;47.858;11.156;2023-07-13T07:01:30;5.03;;;4.13;;
4078;SDS011;2054;47.858;11.156;2023-07-13T07:03:59;10.40;;;3.95;;
4078;SDS011;2054;47.858;11.156;2023-07-13T07:06:27;5.80;;;3.92;;
4078;SDS011;2054;47.858;11.156;2023-07-13T07:08:54;5.22;;;4.00;;
4078;SDS011;2054;47.858;11.156;2023-07-13T07:11:22;6.60;;;3.72;;
4078;SDS011;2054;47.858;11.156;2023-07-13T07:13:50;3.50;;;3.20;;
4078;SDS011;2054;47.858;11.156;2023-07-13T07:16:18;4.97;;;3.72;;
4078;SDS011;2054;47.858;11.156;2023-07-13T07:18:45;7.47;;;3.90;;
4078;SDS011;2054;47.858;11.156;2023-07-13T07:21:14;7.75;;;3.70;;
4078;SDS011;2054;47.858;11.156;2023-07-13T07:23:42;4.68;;;2.78;;
4078;SDS011;2054;47.858;11.156;2023-07-13T07:26:09;3.38;;;2.50;;
4078;SDS011;2054;47.858;11.156;2023-07-13T07:28:36;2.75;;;2.33;;
4078;SDS011;2054;47.858;11.156;2023-07-13T07:31:04;2.92;;;2.30;;
4078;SDS011;2054;47.858;11.156;2023-07-13T07:33:32;3.20;;;2.60;;
4078;SDS011;2054;47.858;11.156;2023-07-13T07:35:59;3.95;;;2.60;;
4078;SDS011;2054;47.858;11.156;2023-07-13T07:38:27;7.07;;;3.40;;
4078;SDS011;2054;47.858;11.156;2023-07-13T07:40:55;5.18;;;2.67;;
4078;SDS011;2054;47.858;11.156;2023-07-13T07:43:22;3.55;;;2.67;;
4078;SDS011;2054;47.858;11.156;2023-07-13T07:45:49;5.07;;;3.25;;
4078;SDS011;2054;47.858;11.156;2023-07-13T07:48:16;5.63;;;2.65;;
4078;SDS011;2054;47.858;11.156;2023-07-13T07:50:43;5.28;;;3.20;;
4078;SDS011;2054;47.858;11.156;2023-07-13T07:53:11;6.32;;;3.25;;
4078;SDS011;2054;47.858;11.156;2023-07-13T07:55:39;4.70;;;2.70;;
4078;SDS011;2054;47.858;11.156;2023-07-13T07:58:07;4.40;;;2.40;;
4078;SDS011;2054;47.858;11.156;2023-07-13T08:00:34;4.60;;;2.60;;
4078;SDS011;2054;47.858;11.156;2023-07-13T08:03:02;6.95;;;2.92;;
4078;SDS011;2054;47.858;11.156;2023-07-13T08:05:29;3.60;;;2.50;;
4078;SDS011;2054;47.858;11.156;2023-07-13T08:07:56;6.75;;;2.47;;
4078;SDS011;2054;47.858;11.156;2023-07-13T08:10:24;3.38;;;2.80;;
4078;SDS011;2054;47.858;11.156;2023-07-13T08:12:52;3.28;;;2.55;;
4078;SDS011;2054;47.858;11.156;2023-07-13T08:15:20;3.70;;;2.42;;
4078;SDS011;2054;47.858;11.156;2023-07-13T08:17:47;3.72;;;2.30;;
4078;SDS011;2054;47.858;11.156;2023-07-13T08:20:14;3.00;;;2.47;;
4078;SDS011;2054;47.858;11.156;2023-07-13T08:22:42;5.45;;;2.60;;
4078;SDS011;2054;47.858;11.156;2023-07-13T08:25:09;6.00;;;2.25;;
4078;SDS011;2054;47.858;11.156;2023-07-13T08:27:37;4.82;;;2.55;;
4078;SDS011;2054;47.858;11.156;2023-07-13T08:30:06;4.10;;;2.20;;
4078;SDS011;2054;47.858;11.156;2023-07-13T08:32:33;4.13;;;2.03;;
4078;SDS011;2054;47.858;11.156;2023-07-13T08:35:00;5.07;;;2.50;;
4078;SDS011;2054;47.858;11.156;2023-07-13T08:37:28;2.72;;;2.30;;
4078;SDS011;2054;47.858;11.156;2023-07-13T08:39:55;3.05;;;2.10;;
4078;SDS011;2054;47.858;11.156;2023-07-13T08:42:26;4.90;;;2.60;;
4078;SDS011;2054;47.858;11.156;2023-07-13T08:44:57;5.53;;;2.70;;
4078;SDS011;2054;47.858;11.156;2023-07-13T08:47:28;5.18;;;3.10;;
4078;SDS011;2054;47.858;11.156;2023-07-13T08:49:58;6.03;;;3.15;;
4078;SDS011;2054;47.858;11.156;2023-07-13T08:52:28;6.35;;;2.95;;
4078;SDS011;2054;47.858;11.156;2023-07-13T08:54:58;3.25;;;2.33;;
4078;SDS011;2054;47.858;11.156;2023-07-13T08:57:31;4.35;;;2.47;;
4078;SDS011;2054;47.858;11.156;2023-07-13T09:00:01;3.83;;;2.28;;
4078;SDS011;2054;47.858;11.156;2023-07-13T09:02:34;4.45;;;2.38;;
4078;SDS011;2054;47.858;11.156;2023-07-13T09:05:08;5.72;;;2.20;;
4078;SDS011;2054;47.858;11.156;2023-07-13T09:07:40;3.38;;;2.65;;
4078;SDS011;2054;47.858;11.156;2023-07-13T09:10:12;4.25;;;2.50;;
4078;SDS011;2054;47.858;11.156;2023-07-13T09:12:45;4.47;;;2.50;;
4078;SDS011;2054;47.858;11.156;2023-07-13T09:15:19;5.97;;;3.33;;
4078;SDS011;2054;47.858;11.156;2023-07-13T09:17:50;5.65;;;2.50;;
4078;SDS011;2054;47.858;11.156;2023-07-13T09:20:21;3.83;;;2.58;;
4078;SDS011;2054;47.858;11.156;2023-07-13T09:22:50;4.53;;;3.38;;
4078;SDS011;2054;47.858;11.156;2023-07-13T09:25:21;4.72;;;2.75;;
4078;SDS011;2054;47.858;11.156;2023-07-13T09:27:50;3.10;;;2.55;;
4078;SDS011;2054;47.858;11.156;2023-07-13T09:30:24;3.85;;;2.35;;
4078;SDS011;2054;47.858;11.156;2023-07-13T09:32:53;4.25;;;2.10;;
4078;SDS011;2054;47.858;11.156;2023-07-13T09:35:24;5.60;;;2.40;;
4078;SDS011;2054;47.858;11.156;2023-07-13T09:37:56;4.68;;;2.67;;
4078;SDS011;2054;47.858;11.156;2023-07-13T09:40:24;5.03;;;2.55;;
4078;SDS011;2054;47.858;11.156;2023-07-13T09:42:52;3.08;;;2.17;;
4078;SDS011;2054;47.858;11.156;2023-07-13T09:45:26;3.80;;;2.65;;
4078;SDS011;2054;47.858;11.156;2023-07-13T09:48:02;3.65;;;2.60;;
4078;SDS011;2054;47.858;11.156;2023-07-13T09:50:30;3.80;;;2.70;;
4078;SDS011;2054;47.858;11.156;2023-07-13T09:52:57;6.43;;;3.35;;
4078;SDS011;2054;47.858;11.156;2023-07-13T09:55:26;5.75;;;2.88;;
4078;SDS011;2054;47.858;11.156;2023-07-13T09:57:55;3.92;;;3.10;;
4078;SDS011;2054;47.858;11.156;2023-07-13T10:00:24;3.75;;;3.00;;
4078;SDS011;2054;47.858;11.156;2023-07-13T10:03:00;5.22;;;2.92;;
4078;SDS011;2054;47.858;11.156;2023-07-13T10:05:28;5.50;;;3.10;;
4078;SDS011;2054;47.858;11.156;2023-07-13T10:08:03;4.18;;;3.17;;
4078;SDS011;2054;47.858;11.156;2023-07-13T10:10:32;4.32;;;2.80;;
4078;SDS011;2054;47.858;11.156;2023-07-13T10:13:01;5.35;;;3.10;;
4078;SDS011;2054;47.858;11.156;2023-07-13T10:15:30;4.47;;;3.15;;
4078;SDS011;2054;47.858;11.156;2023-07-13T10:18:00;5.80;;;3.50;;
4078;SDS011;2054;47.858;11.156;2023-07-13T10:20:27;4.93;;;2.83;;
4078;SDS011;2054;47.858;11.156;2023-07-13T10:22:58;5.43;;;2.70;;
4078;SDS011;2054;47.858;11.156;2023-07-13T10:25:27;3.08;;;2.50;;
4078;SDS011;2054;47.858;11.156;2023-07-13T10:27:58;4.05;;;2.60;;
4078;SDS011;2054;47.858;11.156;2023-07-13T10:30:28;2.70;;;2.42;;
4078;SDS011;2054;47.858;11.156;2023-07-13T10:32:57;5.15;;;2.67;;
4078;SDS011;2054;47.858;11.156;2023-07-13T10:35:26;3.80;;;2.63;;
4078;SDS011;2054;47.858;11.156;2023-07-13T10:37:56;7.75;;;2.92;;
4078;SDS011;2054;47.858;11.156;2023-07-13T10:40:27;3.10;;;2.30;;
4078;SDS011;2054;47.858;11.156;2023-07-13T10:42:55;2.40;;;2.05;;
4078;SDS011;2054;47.858;11.156;2023-07-13T10:45:24;2.78;;;2.30;;
4078;SDS011;2054;47.858;11.156;2023-07-13T10:47:52;2.63;;;2.42;;
4078;SDS011;2054;47.858;11.156;2023-07-13T10:50:22;2.58;;;2.03;;
4078;SDS011;2054;47.858;11.156;2023-07-13T10:52:52;2.83;;;2.10;;
4078;SDS011;2054;47.858;11.156;2023-07-13T10:55:34;4.43;;;1.70;;
4078;SDS011;2054;47.858;11.156;2023-07-13T10:58:02;4.32;;;2.28;;
4078;SDS011;2054;47.858;11.156;2023-07-13T11:00:31;4.07;;;2.10;;
4078;SDS011;2054;47.858;11.156;2023-07-13T11:02:59;4.75;;;2.53;;
4078;SDS011;2054;47.858;11.156;2023-07-13T11:05:29;5.53;;;1.80;;
4078;SDS011;2054;47.858;11.156;2023-07-13T11:08:04;2.85;;;1.70;;
4078;SDS011;2054;47.858;11.156;2023-07-13T11:10:47;3.65;;;1.63;;
4078;SDS011;2054;47.858;11.156;2023-07-13T11:16:00;3.78;;;1.98;;
4078;SDS011;2054;47.858;11.156;2023-07-13T11:18:28;2.55;;;1.67;;
4078;SDS011;2054;47.858;11.156;2023-07-13T11:23:39;4.68;;;1.80;;
4078;SDS011;2054;47.858;11.156;2023-07-13T11:28:52;3.15;;;1.80;;
4078;SDS011;2054;47.858;11.156;2023-07-13T11:31:19;1.92;;;1.60;;
4078;SDS011;2054;47.858;11.156;2023-07-13T11:33:52;3.25;;;1.60;;
4078;SDS011;2054;47.858;11.156;2023-07-13T11:36:20;3.78;;;1.60;;
4078;SDS011;2054;47.858;11.156;2023-07-13T11:38:55;3.47;;;1.85;;
4078;SDS011;2054;47.858;11.156;2023-07-13T11:41:26;2.70;;;1.83;;
4078;SDS011;2054;47.858;11.156;2023-07-13T11:43:55;4.25;;;1.95;;
4078;SDS011;2054;47.858;11.156;2023-07-13T11:46:24;2.95;;;1.95;;
4078;SDS011;2054;47.858;11.156;2023-07-13T11:48:51;4.70;;;2.10;;
4078;SDS011;2054;47.858;11.156;2023-07-13T11:51:20;3.30;;;2.28;;
4078;SDS011;2054;47.858;11.156;2023-07-13T11:53:49;5.82;;;2.50;;
4078;SDS011;2054;47.858;11.156;2023-07-13T11:56:18;4.28;;;2.28;;
4078;SDS011;2054;47.858;11.156;2023-07-13T11:58:48;3.85;;;2.10;;
4078;SDS011;2054;47.858;11.156;2023-07-13T12:01:17;3.95;;;2.28;;
4078;SDS011;2054;47.858;11.156;2023-07-13T12:03:45;4.57;;;1.88;;
4078;SDS011;2054;47.858;11.156;2023-07-13T12:06:24;3.63;;;2.00;;
4078;SDS011;2054;47.858;11.156;2023-07-13T12:08:55;3.83;;;2.00;;
4078;SDS011;2054;47.858;11.156;2023-07-13T12:11:24;4.40;;;2.10;;
4078;SDS011;2054;47.858;11.156;2023-07-13T12:13:51;5.05;;;2.38;;
4078;SDS011;2054;47.858;11.156;2023-07-13T12:16:21;6.13;;;2.30;;
4078;SDS011;2054;47.858;11.156;2023-07-13T12:18:52;3.08;;;1.95;;
4078;SDS011;2054;47.858;11.156;2023-07-13T12:21:22;4.03;;;2.50;;
4078;SDS011;2054;47.858;11.156;2023-07-13T12:23:50;3.70;;;1.83;;
4078;SDS011;2054;47.858;11.156;2023-07-13T12:26:18;4.55;;;2.60;;
4078;SDS011;2054;47.858;11.156;2023-07-13T12:28:48;3.47;;;2.20;;
4078;SDS011;2054;47.858;11.156;2023-07-13T12:31:23;4.00;;;2.55;;
4078;SDS011;2054;47.858;11.156;2023-07-13T12:33:55;3.05;;;2.30;;
4078;SDS011;2054;47.858;11.156;2023-07-13T12:36:23;5.70;;;2.00;;
4078;SDS011;2054;47.858;11.156;2023-07-13T12:38:50;5.07;;;2.53;;
4078;SDS011;2054;47.858;11.156;2023-07-13T12:41:17;3.78;;;2.40;;
4078;SDS011;2054;47.858;11.156;2023-07-13T12:43:47;4.07;;;1.92;;
4078;SDS011;2054;47.858;11.156;2023-07-13T12:46:16;4.22;;;2.10;;
4078;SDS011;2054;47.858;11.156;2023-07-13T12:48:44;6.82;;;2.50;;
4078;SDS011;2054;47.858;11.156;2023-07-13T12:51:11;2.60;;;1.65;;
4078;SDS011;2054;47.858;11.156;2023-07-13T12:53:40;3.42;;;2.30;;
4078;SDS011;2054;47.858;11.156;2023-07-13T12:56:08;3.67;;;2.20;;
4078;SDS011;2054;47.858;11.156;2023-07-13T12:58:40;3.72;;;1.90;;
4078;SDS011;2054;47.858;11.156;2023-07-13T13:01:12;5.65;;;1.80;;
4078;SDS011;2054;47.858;11.156;2023-07-13T13:03:40;2.10;;;1.70;;
4078;SDS011;2054;47.858;11.156;2023-07-13T13:06:20;3.90;;;1.92;;
4078;SDS011;2054;47.858;11.156;2023-07-13T13:08:49;3.80;;;2.13;;
4078;SDS011;2054;47.858;11.156;2023-07-13T13:11:16;6.43;;;2.17;;
4078;SDS011;2054;47.858;11.156;2023-07-13T13:13:44;2.47;;;1.90;;
4078;SDS011;2054;47.858;11.156;2023-07-13T13:16:14;4.97;;;1.98;;
4078;SDS011;2054;47.858;11.156;2023-07-13T13:18:43;3.45;;;1.98;;
4078;SDS011;2054;47.858;11.156;2023-07-13T13:21:11;3.72;;;2.22;;
4078;SDS011;2054;47.858;11.156;2023-07-13T13:23:38;8.85;;;1.63;;
4078;SDS011;2054;47.858;11.156;2023-07-13T13:26:08;2.63;;;2.00;;
4078;SDS011;2054;47.858;11.156;2023-07-13T13:28:36;3.65;;;1.60;;
4078;SDS011;2054;47.858;11.156;2023-07-13T13:31:03;3.38;;;2.00;;
4078;SDS011;2054;47.858;11.156;2023-07-13T13:33:32;4.38;;;2.10;;
4078;SDS011;2054;47.858;11.156;2023-07-13T13:35:59;4.47;;;1.63;;
4078;SDS011;2054;47.858;11.156;2023-07-13T13:38:27;4.25;;;1.90;;
4078;SDS011;2054;47.858;11.156;2023-07-13T13:40:54;2.38;;;1.73;;
4078;SDS011;2054;47.858;11.156;2023-07-13T13:43:22;5.65;;;1.95;;
4078;SDS011;2054;47.858;11.156;2023-07-13T13:45:52;3.38;;;2.00;;
4078;SDS011;2054;47.858;11.156;2023-07-13T13:48:20;4.38;;;2.00;;
4078;SDS011;2054;47.858;11.156;2023-07-13T13:50:56;2.97;;;1.90;;
4078;SDS011;2054;47.858;11.156;2023-07-13T13:53:24;3.17;;;2.28;;
4078;SDS011;2054;47.858;11.156;2023-07-13T13:55:51;3.45;;;1.75;;
4078;SDS011;2054;47.858;11.156;2023-07-13T13:58:19;4.82;;;1.88;;
4078;SDS011;2054;47.858;11.156;2023-07-13T14:00:47;5.03;;;1.95;;
4078;SDS011;2054;47.858;11.156;2023-07-13T14:03:15;3.63;;;1.80;;
4078;SDS011;2054;47.858;11.156;2023-07-13T14:05:44;7.57;;;1.90;;
4078;SDS011;2054;47.858;11.156;2023-07-13T14:08:13;4.38;;;1.77;;
4078;SDS011;2054;47.858;11.156;2023-07-13T14:10:41;6.18;;;1.73;;
4078;SDS011;2054;47.858;11.156;2023-07-13T14:13:13;4.05;;;2.13;;
4078;SDS011;2054;47.858;11.156;2023-07-13T14:15:43;5.03;;;1.85;;
4078;SDS011;2054;47.858;11.156;2023-07-13T14:18:11;3.15;;;1.90;;
4078;SDS011;2054;47.858;11.156;2023-07-13T14:20:42;3.60;;;1.70;;
4078;SDS011;2054;47.858;11.156;2023-07-13T14:23:10;2.55;;;1.60;;
4078;SDS011;2054;47.858;11.156;2023-07-13T14:25:39;5.60;;;1.77;;
4078;SDS011;2054;47.858;11.156;2023-07-13T14:28:12;4.28;;;1.92;;
4078;SDS011;2054;47.858;11.156;2023-07-13T14:30:41;3.35;;;1.83;;
4078;SDS011;2054;47.858;11.156;2023-07-13T14:33:08;4.57;;;1.95;;
4078;SDS011;2054;47.858;11.156;2023-07-13T14:35:36;2.33;;;1.75;;
4078;SDS011;2054;47.858;11.156;2023-07-13T14:38:04;3.05;;;2.05;;
4078;SDS011;2054;47.858;11.156;2023-07-13T14:40:32;3.70;;;1.90;;
4078;SDS011;2054;47.858;11.156;2023-07-13T14:43:01;3.30;;;2.05;;
4078;SDS011;2054;47.858;11.156;2023-07-13T14:45:28;2.33;;;1.48;;
4078;SDS011;2054;47.858;11.156;2023-07-13T14:47:57;3.97;;;1.98;;
4078;SDS011;2054;47.858;11.156;2023-07-13T14:50:26;2.65;;;1.92;;
4078;SDS011;2054;47.858;11.156;2023-07-13T14:52:55;2.58;;;1.77;;
4078;SDS011;2054;47.858;11.156;2023-07-13T14:55:22;5.63;;;2.03;;
4078;SDS011;2054;47.858;11.156;2023-07-13T14:57:51;4.32;;;2.30;;
4078;SDS011;2054;47.858;11.156;2023-07-13T15:00:20;4.03;;;1.80;;
4078;SDS011;2054;47.858;11.156;2023-07-13T15:02:50;2.53;;;2.00;;
4078;SDS011;2054;47.858;11.156;2023-07-13T15:05:20;2.83;;;1.90;;
4078;SDS011;2054;47.858;11.156;2023-07-13T15:07:48;2.67;;;1.67;;
4078;SDS011;2054;47.858;11.156;2023-07-13T15:10:16;4.20;;;1.80;;
4078;SDS011;2054;47.858;11.156;2023-07-13T15:12:44;3.45;;;1.70;;
4078;SDS011;2054;47.858;11.156;2023-07-13T15:15:12;3.42;;;1.75;;
4078;SDS011;2054;47.858;11.156;2023-07-13T15:17:41;3.47;;;1.80;;
4078;SDS011;2054;47.858;11.156;2023-07-13T15:20:15;3.70;;;2.00;;
4078;SDS011;2054;47.858;11.156;2023-07-13T15:22:43;2.85;;;2.30;;
4078;SDS011;2054;47.858;11.156;2023-07-13T15:25:11;2.72;;;1.80;;
4078;SDS011;2054;47.858;11.156;2023-07-13T15:27:41;3.42;;;2.03;;
4078;SDS011;2054;47.858;11.156;2023-07-13T15:30:08;6.32;;;1.92;;
4078;SDS011;2054;47.858;11.156;2023-07-13T15:32:36;6.22;;;1.83;;
4078;SDS011;2054;47.858;11.156;2023-07-13T15:35:08;3.60;;;2.05;;
4078;SDS011;2054;47.858;11.156;2023-07-13T15:37:39;3.00;;;2.40;;
4078;SDS011;2054;47.858;11.156;2023-07-13T15:40:07;1.88;;;1.77;;
4078;SDS011;2054;47.858;11.156;2023-07-13T15:42:35;3.53;;;2.00;;
4078;SDS011;2054;47.858;11.156;2023-07-13T15:45:04;4.97;;;2.05;;
4078;SDS011;2054;47.858;11.156;2023-07-13T15:47:32;3.90;;;1.83;;
4078;SDS011;2054;47.858;11.156;2023-07-13T15:49:59;2.40;;;1.95;;
4078;SDS011;2054;47.858;11.156;2023-07-13T15:52:29;3.80;;;2.38;;
4078;SDS011;2054;47.858;11.156;2023-07-13T15:54:57;5.03;;;1.88;;
4078;SDS011;2054;47.858;11.156;2023-07-13T15:57:26;4.38;;;2.10;;
4078;SDS011;2054;47.858;11.156;2023-07-13T15:59:53;5.53;;;2.17;;
4078;SDS011;2054;47.858;11.156;2023-07-13T16:02:21;3.63;;;1.90;;
4078;SDS011;2054;47.858;11.156;2023-07-13T16:04:48;2.50;;;2.30;;
4078;SDS011;2054;47.858;11.156;2023-07-13T16:07:15;2.20;;;2.00;;
4078;SDS011;2054;47.858;11.156;2023-07-13T16:09:45;4.35;;;2.35;;
4078;SDS011;2054;47.858;11.156;2023-07-13T16:12:13;2.45;;;1.90;;
4078;SDS011;2054;47.858;11.156;2023-07-13T16:14:42;2.25;;;1.95;;
4078;SDS011;2054;47.858;11.156;2023-07-13T16:17:10;3.97;;;2.20;;
4078;SDS011;2054;47.858;11.156;2023-07-13T16:19:37;4.45;;;2.42;;
4078;SDS011;2054;47.858;11.156;2023-07-13T16:22:05;2.50;;;2.05;;
4078;SDS011;2054;47.858;11.156;2023-07-13T16:24:32;4.60;;;2.40;;
4078;SDS011;2054;47.858;11.156;2023-07-13T16:27:01;2.95;;;1.70;;
4078;SDS011;2054;47.858;11.156;2023-07-13T16:29:29;2.95;;;2.03;;
4078;SDS011;2054;47.858;11.156;2023-07-13T16:32:00;3.35;;;2.15;;
4078;SDS011;2054;47.858;11.156;2023-07-13T16:34:28;2.58;;;2.10;;
4078;SDS011;2054;47.858;11.156;2023-07-13T16:36:56;2.33;;;2.03;;
4078;SDS011;2054;47.858;11.156;2023-07-13T16:39:25;3.17;;;1.83;;
4078;SDS011;2054;47.858;11.156;2023-07-13T16:41:53;2.65;;;1.98;;
4078;SDS011;2054;47.858;11.156;2023-07-13T16:44:22;2.78;;;2.20;;
4078;SDS011;2054;47.858;11.156;2023-07-13T16:46:52;2.95;;;2.50;;
4078;SDS011;2054;47.858;11.156;2023-07-13T16:49:24;2.47;;;2.28;;
4078;SDS011;2054;47.858;11.156;2023-07-13T16:51:53;3.35;;;2.40;;
4078;SDS011;2054;47.858;11.156;2023-07-13T16:54:27;2.40;;;2.20;;
4078;SDS011;2054;47.858;11.156;2023-07-13T16:56:56;3.20;;;2.25;;
4078;SDS011;2054;47.858;11.156;2023-07-13T16:59:28;2.33;;;2.00;;
4078;SDS011;2054;47.858;11.156;2023-07-13T17:01:57;2.80;;;2.30;;
4078;SDS011;2054;47.858;11.156;2023-07-13T17:04:25;2.50;;;2.30;;
4078;SDS011;2054;47.858;11.156;2023-07-13T17:06:53;4.60;;;2.40;;
4078;SDS011;2054;47.858;11.156;2023-07-13T17:09:21;2.78;;;1.90;;
4078;SDS011;2054;47.858;11.156;2023-07-13T17:11:49;2.72;;;2.33;;
4078;SDS011;2054;47.858;11.156;2023-07-13T17:14:19;2.80;;;2.20;;
4078;SDS011;2054;47.858;11.156;2023-07-13T17:16:49;6.38;;;2.35;;
4078;SDS011;2054;47.858;11.156;2023-07-13T17:19:17;4.43;;;1.98;;
4078;SDS011;2054;47.858;11.156;2023-07-13T17:21:46;2.70;;;1.95;;
4078;SDS011;2054;47.858;11.156;2023-07-13T17:24:17;2.72;;;2.10;;
4078;SDS011;2054;47.858;11.156;2023-07-13T17:26:45;3.53;;;1.90;;
4078;SDS011;2054;47.858;11.156;2023-07-13T17:29:13;2.92;;;2.30;;
4078;SDS011;2054;47.858;11.156;2023-07-13T17:31:40;3.33;;;2.17;;
4078;SDS011;2054;47.858;11.156;2023-07-13T17:34:12;3.20;;;2.20;;
4078;SDS011;2054;47.858;11.156;2023-07-13T17:36:43;3.75;;;2.05;;
4078;SDS011;2054;47.858;11.156;2023-07-13T17:39:12;5.82;;;2.40;;
4078;SDS011;2054;47.858;11.156;2023-07-13T17:41:40;4.63;;;2.15;;
4078;SDS011;2054;47.858;11.156;2023-07-13T17:44:09;3.17;;;2.20;;
4078;SDS011;2054;47.858;11.156;2023-07-13T17:46:36;3.00;;;2.00;;
4078;SDS011;2054;47.858;11.156;2023-07-13T17:49:04;8.13;;;1.98;;
4078;SDS011;2054;47.858;11.156;2023-07-13T17:51:34;2.83;;;2.22;;
4078;SDS011;2054;47.858;11.156;2023-07-13T17:54:04;3.20;;;1.92;;
4078;SDS011;2054;47.858;11.156;2023-07-13T17:56:35;2.63;;;1.98;;
4078;SDS011;2054;47.858;11.156;2023-07-13T17:59:03;4.38;;;2.42;;
4078;SDS011;2054;47.858;11.156;2023-07-13T18:01:30;3.90;;;2.20;;